sensor_id;sensor_type;location;lat;lon;timestamp;temperature;humidity
10282;DHT22;5186;59.472;18.048;2023-02-12T00:00:40;-4.80;99.90
10282;DHT22;5186;59.472;18.048;2023-02-12T00:03:06;-4.80;99.90
10282;DHT22;5186;59.472;18.048;2023-02-12T00:05:33;-4.80;99.90
10282;DHT22;5186;59.472;18.048;2023-02-12T00:08:01;-4.90;99.90
10282;DHT22;5186;59.472;18.048;2023-02-12T00:10:27;-4.90;99.90
10282;DHT22;5186;59.472;18.048;2023-02-12T00:12:53;-4.90;99.90
10282;DHT22;5186;59.472;18.048;2023-02-12T00:15:19;-4.90;99.90
10282;DHT22;5186;59.472;18.048;2023-02-12T00:17:44;-4.90;99.90
10282;DHT22;5186;59.472;18.048;2023-02-12T00:20:10;-4.90;99.90
10282;DHT22;5186;59.472;18.048;2023-02-12T00:22:36;-4.90;99.90
10282;DHT22;5186;59.472;18.048;2023-02-12T00:25:02;-4.90;99.90
10282;DHT22;5186;59.472;18.048;2023-02-12T00:27:31;-4.90;99.90
10282;DHT22;5186;59.472;18.048;2023-02-12T00:29:57;-4.90;99.90
10282;DHT22;5186;59.472;18.048;2023-02-12T00:32:22;-4.90;99.90
10282;DHT22;5186;59.472;18.048;2023-02-12T00:34:48;-5.00;99.90
10282;DHT22;5186;59.472;18.048;2023-02-12T00:37:14;-5.00;99.90
10282;DHT22;5186;59.472;18.048;2023-02-12T00:39:40;-4.90;99.90
10282;DHT22;5186;59.472;18.048;2023-02-12T00:42:06;-4.90;99.90
10282;DHT22;5186;59.472;18.048;2023-02-12T00:44:32;-4.90;99.90
10282;DHT22;5186;59.472;18.048;2023-02-12T00:46:58;-4.90;99.90
10282;DHT22;5186;59.472;18.048;2023-02-12T00:49:29;-4.90;99.90
10282;DHT22;5186;59.472;18.048;2023-02-12T00:52:01;-4.90;99.90
10282;DHT22;5186;59.472;18.048;2023-02-12T00:54:28;-4.90;99.90
10282;DHT22;5186;59.472;18.048;2023-02-12T00:56:54;-4.90;99.90
10282;DHT22;5186;59.472;18.048;2023-02-12T00:59:24;-5.00;99.90
10282;DHT22;5186;59.472;18.048;2023-02-12T01:01:50;-4.90;99.90
10282;DHT22;5186;59.472;18.048;2023-02-12T01:04:17;-4.90;99.90
10282;DHT22;5186;59.472;18.048;2023-02-12T01:06:43;-4.90;99.90
10282;DHT22;5186;59.472;18.048;2023-02-12T01:09:08;-4.90;99.90
10282;DHT22;5186;59.472;18.048;2023-02-12T01:11:34;-4.90;99.90
10282;DHT22;5186;59.472;18.048;2023-02-12T01:13:59;-4.90;99.90
10282;DHT22;5186;59.472;18.048;2023-02-12T01:16:25;-4.80;99.90
10282;DHT22;5186;59.472;18.048;2023-02-12T01:18:52;-4.80;99.90
10282;DHT22;5186;59.472;18.048;2023-02-12T01:21:22;-4.80;99.90
10282;DHT22;5186;59.472;18.048;2023-02-12T01:23:49;-4.80;99.90
10282;DHT22;5186;59.472;18.048;2023-02-12T01:26:16;-4.70;99.90
10282;DHT22;5186;59.472;18.048;2023-02-12T01:28:44;-4.60;99.90
10282;DHT22;5186;59.472;18.048;2023-02-12T01:31:12;-4.60;99.90
10282;DHT22;5186;59.472;18.048;2023-02-12T01:33:38;-4.60;99.90
10282;DHT22;5186;59.472;18.048;2023-02-12T01:36:03;-4.50;99.90
10282;DHT22;5186;59.472;18.048;2023-02-12T01:38:29;-4.50;99.90
10282;DHT22;5186;59.472;18.048;2023-02-12T01:41:08;-4.50;99.90
10282;DHT22;5186;59.472;18.048;2023-02-12T01:43:35;-4.50;99.90
10282;DHT22;5186;59.472;18.048;2023-02-12T01:46:01;-4.50;99.90
10282;DHT22;5186;59.472;18.048;2023-02-12T01:48:30;-4.40;99.90
10282;DHT22;5186;59.472;18.048;2023-02-12T01:50:57;-4.40;99.90
10282;DHT22;5186;59.472;18.048;2023-02-12T01:53:27;-4.40;99.90
10282;DHT22;5186;59.472;18.048;2023-02-12T01:55:57;-4.30;99.90
10282;DHT22;5186;59.472;18.048;2023-02-12T01:58:26;-4.20;99.90
10282;DHT22;5186;59.472;18.048;2023-02-12T02:00:54;-4.20;99.90
10282;DHT22;5186;59.472;18.048;2023-02-12T02:03:20;-4.20;99.90
10282;DHT22;5186;59.472;18.048;2023-02-12T02:06:14;-4.10;99.90
10282;DHT22;5186;59.472;18.048;2023-02-12T02:08:41;-4.00;99.90
10282;DHT22;5186;59.472;18.048;2023-02-12T02:11:07;-4.00;99.90
10282;DHT22;5186;59.472;18.048;2023-02-12T02:13:53;-3.90;99.90
10282;DHT22;5186;59.472;18.048;2023-02-12T02:16:42;-3.90;99.90
10282;DHT22;5186;59.472;18.048;2023-02-12T02:22:30;-3.70;99.90
10282;DHT22;5186;59.472;18.048;2023-02-12T02:38:30;-3.30;99.90
10282;DHT22;5186;59.472;18.048;2023-02-12T02:43:30;-3.10;99.90
10282;DHT22;5186;59.472;18.048;2023-02-12T02:46:04;-3.00;99.90
10282;DHT22;5186;59.472;18.048;2023-02-12T02:48:38;-2.90;99.90
10282;DHT22;5186;59.472;18.048;2023-02-12T02:51:09;-2.80;99.90
10282;DHT22;5186;59.472;18.048;2023-02-12T02:53:41;-2.70;99.90
10282;DHT22;5186;59.472;18.048;2023-02-12T02:56:11;-2.60;99.90
10282;DHT22;5186;59.472;18.048;2023-02-12T02:58:42;-2.60;99.90
10282;DHT22;5186;59.472;18.048;2023-02-12T03:01:21;-2.50;99.90
10282;DHT22;5186;59.472;18.048;2023-02-12T03:04:07;-2.50;99.90
10282;DHT22;5186;59.472;18.048;2023-02-12T03:07:05;-2.40;99.90
10282;DHT22;5186;59.472;18.048;2023-02-12T03:09:35;-2.30;99.90
10282;DHT22;5186;59.472;18.048;2023-02-12T03:12:11;-2.20;99.90
10282;DHT22;5186;59.472;18.048;2023-02-12T03:14:43;-2.20;99.90
10282;DHT22;5186;59.472;18.048;2023-02-12T03:17:27;-2.20;99.90
10282;DHT22;5186;59.472;18.048;2023-02-12T03:20:14;-2.10;99.90
10282;DHT22;5186;59.472;18.048;2023-02-12T03:23:29;-2.00;99.90
10282;DHT22;5186;59.472;18.048;2023-02-12T03:28:20;-2.00;99.90
10282;DHT22;5186;59.472;18.048;2023-02-12T03:36:15;-1.90;99.90
10282;DHT22;5186;59.472;18.048;2023-02-12T03:38:50;-1.80;99.90
10282;DHT22;5186;59.472;18.048;2023-02-12T03:41:26;-1.80;99.90
10282;DHT22;5186;59.472;18.048;2023-02-12T03:44:09;-1.80;99.90
10282;DHT22;5186;59.472;18.048;2023-02-12T03:46:59;-1.70;99.90
10282;DHT22;5186;59.472;18.048;2023-02-12T03:49:31;-1.70;99.90
10282;DHT22;5186;59.472;18.048;2023-02-12T03:51:58;-1.60;99.90
10282;DHT22;5186;59.472;18.048;2023-02-12T03:54:24;-1.60;99.90
10282;DHT22;5186;59.472;18.048;2023-02-12T03:59:35;-1.50;99.90
10282;DHT22;5186;59.472;18.048;2023-02-12T04:02:02;-1.50;99.90
10282;DHT22;5186;59.472;18.048;2023-02-12T04:04:28;-1.50;99.90
10282;DHT22;5186;59.472;18.048;2023-02-12T04:06:55;-1.50;99.90
10282;DHT22;5186;59.472;18.048;2023-02-12T04:09:22;-1.40;99.90
10282;DHT22;5186;59.472;18.048;2023-02-12T04:23:16;-1.30;99.90
10282;DHT22;5186;59.472;18.048;2023-02-12T04:26:05;-1.30;99.90
10282;DHT22;5186;59.472;18.048;2023-02-12T04:28:35;-1.30;99.90
10282;DHT22;5186;59.472;18.048;2023-02-12T04:34:10;-1.20;99.90
10282;DHT22;5186;59.472;18.048;2023-02-12T04:36:45;-1.20;99.90
10282;DHT22;5186;59.472;18.048;2023-02-12T04:39:23;-1.10;99.90
10282;DHT22;5186;59.472;18.048;2023-02-12T04:41:50;-1.10;99.90
10282;DHT22;5186;59.472;18.048;2023-02-12T04:44:23;-1.10;99.90
10282;DHT22;5186;59.472;18.048;2023-02-12T04:46:49;-1.10;99.90
10282;DHT22;5186;59.472;18.048;2023-02-12T04:49:18;-1.10;99.90
10282;DHT22;5186;59.472;18.048;2023-02-12T04:51:44;-1.10;99.90
10282;DHT22;5186;59.472;18.048;2023-02-12T04:54:11;-1.10;99.90
10282;DHT22;5186;59.472;18.048;2023-02-12T04:56:37;-1.00;99.90
10282;DHT22;5186;59.472;18.048;2023-02-12T04:59:03;-1.00;99.90
10282;DHT22;5186;59.472;18.048;2023-02-12T05:01:29;-1.00;99.90
10282;DHT22;5186;59.472;18.048;2023-02-12T05:03:54;-0.90;99.90
10282;DHT22;5186;59.472;18.048;2023-02-12T05:06:20;-0.90;99.90
10282;DHT22;5186;59.472;18.048;2023-02-12T05:08:45;-0.90;99.90
10282;DHT22;5186;59.472;18.048;2023-02-12T05:11:11;-0.90;99.90
10282;DHT22;5186;59.472;18.048;2023-02-12T05:13:37;-0.90;99.90
10282;DHT22;5186;59.472;18.048;2023-02-12T05:16:04;-0.90;99.90
10282;DHT22;5186;59.472;18.048;2023-02-12T05:18:31;-0.90;99.90
10282;DHT22;5186;59.472;18.048;2023-02-12T05:20:57;-0.80;99.90
10282;DHT22;5186;59.472;18.048;2023-02-12T05:23:27;-0.80;99.90
10282;DHT22;5186;59.472;18.048;2023-02-12T05:25:53;-0.80;99.90
10282;DHT22;5186;59.472;18.048;2023-02-12T05:28:19;-0.80;99.90
10282;DHT22;5186;59.472;18.048;2023-02-12T05:30:45;-0.80;99.90
10282;DHT22;5186;59.472;18.048;2023-02-12T05:33:10;-0.70;99.90
10282;DHT22;5186;59.472;18.048;2023-02-12T05:35:36;-0.70;99.90
10282;DHT22;5186;59.472;18.048;2023-02-12T05:38:02;-0.70;99.90
10282;DHT22;5186;59.472;18.048;2023-02-12T05:40:27;-0.70;99.90
10282;DHT22;5186;59.472;18.048;2023-02-12T05:42:53;-0.70;99.90
10282;DHT22;5186;59.472;18.048;2023-02-12T05:45:18;-0.60;99.90
10282;DHT22;5186;59.472;18.048;2023-02-12T05:47:44;-0.60;99.90
10282;DHT22;5186;59.472;18.048;2023-02-12T05:50:10;-0.60;99.90
10282;DHT22;5186;59.472;18.048;2023-02-12T05:52:35;-0.60;99.90
10282;DHT22;5186;59.472;18.048;2023-02-12T05:55:01;-0.60;99.90
10282;DHT22;5186;59.472;18.048;2023-02-12T05:57:27;-0.50;99.90
10282;DHT22;5186;59.472;18.048;2023-02-12T05:59:52;-0.60;99.90
10282;DHT22;5186;59.472;18.048;2023-02-12T06:02:18;-0.50;99.90
10282;DHT22;5186;59.472;18.048;2023-02-12T06:04:44;-0.50;99.90
10282;DHT22;5186;59.472;18.048;2023-02-12T06:07:09;-0.50;99.90
10282;DHT22;5186;59.472;18.048;2023-02-12T06:09:36;-0.50;99.90
10282;DHT22;5186;59.472;18.048;2023-02-12T06:12:01;-0.40;99.90
10282;DHT22;5186;59.472;18.048;2023-02-12T06:14:27;-0.50;99.90
10282;DHT22;5186;59.472;18.048;2023-02-12T06:16:53;-0.40;99.90
10282;DHT22;5186;59.472;18.048;2023-02-12T06:19:18;-0.40;99.90
10282;DHT22;5186;59.472;18.048;2023-02-12T06:21:44;-0.40;99.90
10282;DHT22;5186;59.472;18.048;2023-02-12T06:24:15;-0.40;99.90
10282;DHT22;5186;59.472;18.048;2023-02-12T06:26:41;-0.30;99.90
10282;DHT22;5186;59.472;18.048;2023-02-12T06:29:06;-0.30;99.90
10282;DHT22;5186;59.472;18.048;2023-02-12T06:31:34;-0.30;99.90
10282;DHT22;5186;59.472;18.048;2023-02-12T06:34:02;-0.30;99.90
10282;DHT22;5186;59.472;18.048;2023-02-12T06:36:28;-0.20;99.90
10282;DHT22;5186;59.472;18.048;2023-02-12T06:38:54;-0.20;99.90
10282;DHT22;5186;59.472;18.048;2023-02-12T06:41:21;-0.20;99.90
10282;DHT22;5186;59.472;18.048;2023-02-12T06:43:47;-0.20;99.90
10282;DHT22;5186;59.472;18.048;2023-02-12T06:46:13;-0.10;99.90
10282;DHT22;5186;59.472;18.048;2023-02-12T06:48:39;-0.10;99.90
10282;DHT22;5186;59.472;18.048;2023-02-12T06:51:09;-0.10;99.90
10282;DHT22;5186;59.472;18.048;2023-02-12T06:53:35;-0.10;99.90
10282;DHT22;5186;59.472;18.048;2023-02-12T06:56:02;-0.10;99.90
10282;DHT22;5186;59.472;18.048;2023-02-12T06:58:28;0.00;99.90
10282;DHT22;5186;59.472;18.048;2023-02-12T07:00:54;0.00;99.90
10282;DHT22;5186;59.472;18.048;2023-02-12T07:03:20;0.10;99.90
10282;DHT22;5186;59.472;18.048;2023-02-12T07:05:45;0.10;99.90
10282;DHT22;5186;59.472;18.048;2023-02-12T07:08:13;0.10;99.90
10282;DHT22;5186;59.472;18.048;2023-02-12T07:10:38;0.10;99.90
10282;DHT22;5186;59.472;18.048;2023-02-12T07:13:04;0.20;99.90
10282;DHT22;5186;59.472;18.048;2023-02-12T07:15:30;0.20;99.90
10282;DHT22;5186;59.472;18.048;2023-02-12T07:17:55;0.20;99.90
10282;DHT22;5186;59.472;18.048;2023-02-12T07:20:21;0.20;99.90
10282;DHT22;5186;59.472;18.048;2023-02-12T07:22:47;0.30;99.90
10282;DHT22;5186;59.472;18.048;2023-02-12T07:25:12;0.30;99.90
10282;DHT22;5186;59.472;18.048;2023-02-12T07:27:38;0.30;99.90
10282;DHT22;5186;59.472;18.048;2023-02-12T07:30:05;0.30;99.90
10282;DHT22;5186;59.472;18.048;2023-02-12T07:32:34;0.40;99.90
10282;DHT22;5186;59.472;18.048;2023-02-12T07:35:00;0.40;99.90
10282;DHT22;5186;59.472;18.048;2023-02-12T07:37:25;0.40;99.90
10282;DHT22;5186;59.472;18.048;2023-02-12T07:39:51;0.40;99.90
10282;DHT22;5186;59.472;18.048;2023-02-12T07:42:17;0.50;99.90
10282;DHT22;5186;59.472;18.048;2023-02-12T07:44:43;0.50;99.90
10282;DHT22;5186;59.472;18.048;2023-02-12T07:47:09;0.50;99.90
10282;DHT22;5186;59.472;18.048;2023-02-12T07:49:35;0.50;99.90
10282;DHT22;5186;59.472;18.048;2023-02-12T07:52:00;0.60;99.90
10282;DHT22;5186;59.472;18.048;2023-02-12T07:54:26;0.60;99.90
10282;DHT22;5186;59.472;18.048;2023-02-12T07:56:51;0.60;99.90
10282;DHT22;5186;59.472;18.048;2023-02-12T07:59:18;0.60;99.90
10282;DHT22;5186;59.472;18.048;2023-02-12T08:01:48;0.70;99.90
10282;DHT22;5186;59.472;18.048;2023-02-12T08:04:20;0.70;99.90
10282;DHT22;5186;59.472;18.048;2023-02-12T08:06:47;0.70;99.90
10282;DHT22;5186;59.472;18.048;2023-02-12T08:09:17;0.80;99.90
10282;DHT22;5186;59.472;18.048;2023-02-12T08:11:43;0.80;99.90
10282;DHT22;5186;59.472;18.048;2023-02-12T08:14:11;0.80;99.90
10282;DHT22;5186;59.472;18.048;2023-02-12T08:16:38;0.90;99.90
10282;DHT22;5186;59.472;18.048;2023-02-12T08:19:05;0.90;99.90
10282;DHT22;5186;59.472;18.048;2023-02-12T08:21:30;0.90;99.90
10282;DHT22;5186;59.472;18.048;2023-02-12T08:23:57;1.00;99.90
10282;DHT22;5186;59.472;18.048;2023-02-12T08:26:31;1.00;99.90
10282;DHT22;5186;59.472;18.048;2023-02-12T08:28:59;1.10;99.90
10282;DHT22;5186;59.472;18.048;2023-02-12T08:31:37;1.10;99.90
10282;DHT22;5186;59.472;18.048;2023-02-12T08:34:04;1.10;99.90
10282;DHT22;5186;59.472;18.048;2023-02-12T08:36:37;1.20;99.90
10282;DHT22;5186;59.472;18.048;2023-02-12T08:39:04;1.20;99.90
10282;DHT22;5186;59.472;18.048;2023-02-12T08:41:30;1.30;99.90
10282;DHT22;5186;59.472;18.048;2023-02-12T08:43:58;1.30;99.90
10282;DHT22;5186;59.472;18.048;2023-02-12T08:46:26;1.40;99.90
10282;DHT22;5186;59.472;18.048;2023-02-12T08:48:55;1.40;99.90
10282;DHT22;5186;59.472;18.048;2023-02-12T08:51:26;1.40;99.90
10282;DHT22;5186;59.472;18.048;2023-02-12T08:53:55;1.50;99.90
10282;DHT22;5186;59.472;18.048;2023-02-12T08:56:22;1.50;99.90
10282;DHT22;5186;59.472;18.048;2023-02-12T08:58:48;1.50;99.90
10282;DHT22;5186;59.472;18.048;2023-02-12T09:01:16;1.60;99.90
10282;DHT22;5186;59.472;18.048;2023-02-12T09:03:43;1.60;99.90
10282;DHT22;5186;59.472;18.048;2023-02-12T09:06:09;1.60;99.90
10282;DHT22;5186;59.472;18.048;2023-02-12T09:08:36;1.70;99.90
10282;DHT22;5186;59.472;18.048;2023-02-12T09:11:07;1.70;99.90
10282;DHT22;5186;59.472;18.048;2023-02-12T09:13:34;1.70;99.90
10282;DHT22;5186;59.472;18.048;2023-02-12T09:16:02;1.80;99.90
10282;DHT22;5186;59.472;18.048;2023-02-12T09:18:28;1.80;99.90
10282;DHT22;5186;59.472;18.048;2023-02-12T09:20:54;1.80;99.90
10282;DHT22;5186;59.472;18.048;2023-02-12T09:23:20;1.90;99.90
10282;DHT22;5186;59.472;18.048;2023-02-12T09:25:46;1.90;99.90
10282;DHT22;5186;59.472;18.048;2023-02-12T09:28:13;1.90;99.90
10282;DHT22;5186;59.472;18.048;2023-02-12T09:30:39;1.90;99.90
10282;DHT22;5186;59.472;18.048;2023-02-12T09:33:06;2.00;99.90
10282;DHT22;5186;59.472;18.048;2023-02-12T09:35:35;2.00;99.90
10282;DHT22;5186;59.472;18.048;2023-02-12T09:38:01;2.10;99.90
10282;DHT22;5186;59.472;18.048;2023-02-12T09:40:39;2.10;99.90
10282;DHT22;5186;59.472;18.048;2023-02-12T09:43:16;2.10;99.90
10282;DHT22;5186;59.472;18.048;2023-02-12T09:51:28;2.20;99.90
10282;DHT22;5186;59.472;18.048;2023-02-12T09:54:21;2.30;99.90
10282;DHT22;5186;59.472;18.048;2023-02-12T09:56:53;2.30;99.90
10282;DHT22;5186;59.472;18.048;2023-02-12T09:59:29;2.30;99.90
10282;DHT22;5186;59.472;18.048;2023-02-12T10:01:57;2.30;99.90
10282;DHT22;5186;59.472;18.048;2023-02-12T10:04:24;2.40;99.90
10282;DHT22;5186;59.472;18.048;2023-02-12T10:07:06;2.40;99.90
10282;DHT22;5186;59.472;18.048;2023-02-12T10:09:54;2.40;99.90
10282;DHT22;5186;59.472;18.048;2023-02-12T10:12:48;2.50;99.90
10282;DHT22;5186;59.472;18.048;2023-02-12T10:15:57;2.50;99.90
10282;DHT22;5186;59.472;18.048;2023-02-12T10:21:43;2.60;99.90
10282;DHT22;5186;59.472;18.048;2023-02-12T10:24:40;2.60;99.90
10282;DHT22;5186;59.472;18.048;2023-02-12T10:33:18;2.70;99.90
10282;DHT22;5186;59.472;18.048;2023-02-12T10:35:52;2.70;99.90
10282;DHT22;5186;59.472;18.048;2023-02-12T10:38:24;2.80;99.90
10282;DHT22;5186;59.472;18.048;2023-02-12T10:40:51;2.80;99.90
10282;DHT22;5186;59.472;18.048;2023-02-12T10:43:19;2.80;99.90
10282;DHT22;5186;59.472;18.048;2023-02-12T10:45:45;2.90;99.90
10282;DHT22;5186;59.472;18.048;2023-02-12T10:53:35;2.90;99.90
10282;DHT22;5186;59.472;18.048;2023-02-12T10:56:20;3.00;99.90
10282;DHT22;5186;59.472;18.048;2023-02-12T10:58:56;3.00;99.90
10282;DHT22;5186;59.472;18.048;2023-02-12T11:01:32;3.10;99.90
10282;DHT22;5186;59.472;18.048;2023-02-12T11:04:00;3.10;99.90
10282;DHT22;5186;59.472;18.048;2023-02-12T11:07:05;3.10;99.90
10282;DHT22;5186;59.472;18.048;2023-02-12T11:12:01;3.20;99.90
10282;DHT22;5186;59.472;18.048;2023-02-12T11:14:27;3.20;99.90
10282;DHT22;5186;59.472;18.048;2023-02-12T11:19:21;3.20;99.90
10282;DHT22;5186;59.472;18.048;2023-02-12T11:21:47;3.20;99.90
10282;DHT22;5186;59.472;18.048;2023-02-12T11:26:45;3.20;99.90
10282;DHT22;5186;59.472;18.048;2023-02-12T11:29:22;3.30;99.90
10282;DHT22;5186;59.472;18.048;2023-02-12T11:32:03;3.30;99.90
10282;DHT22;5186;59.472;18.048;2023-02-12T11:34:29;3.30;99.90
10282;DHT22;5186;59.472;18.048;2023-02-12T11:36:56;3.30;99.90
10282;DHT22;5186;59.472;18.048;2023-02-12T11:39:23;3.40;99.90
10282;DHT22;5186;59.472;18.048;2023-02-12T11:42:06;3.40;99.90
10282;DHT22;5186;59.472;18.048;2023-02-12T11:44:41;3.40;99.90
10282;DHT22;5186;59.472;18.048;2023-02-12T11:47:15;3.40;99.90
10282;DHT22;5186;59.472;18.048;2023-02-12T11:52:24;3.50;99.90
10282;DHT22;5186;59.472;18.048;2023-02-12T11:54:53;3.50;99.90
10282;DHT22;5186;59.472;18.048;2023-02-12T11:57:43;3.50;99.90
10282;DHT22;5186;59.472;18.048;2023-02-12T12:02:48;3.60;99.90
10282;DHT22;5186;59.472;18.048;2023-02-12T12:05:18;3.60;99.90
10282;DHT22;5186;59.472;18.048;2023-02-12T12:07:52;3.60;99.90
10282;DHT22;5186;59.472;18.048;2023-02-12T12:10:33;3.60;99.90
10282;DHT22;5186;59.472;18.048;2023-02-12T12:13:04;3.60;99.90
10282;DHT22;5186;59.472;18.048;2023-02-12T12:15:37;3.70;99.90
10282;DHT22;5186;59.472;18.048;2023-02-12T12:21:39;3.70;99.90
10282;DHT22;5186;59.472;18.048;2023-02-12T12:24:20;3.70;99.90
10282;DHT22;5186;59.472;18.048;2023-02-12T12:26:56;3.70;99.90
10282;DHT22;5186;59.472;18.048;2023-02-12T12:29:56;3.70;99.90
10282;DHT22;5186;59.472;18.048;2023-02-12T12:32:25;3.70;99.90
10282;DHT22;5186;59.472;18.048;2023-02-12T12:34:53;3.70;99.90
10282;DHT22;5186;59.472;18.048;2023-02-12T12:37:42;3.70;99.90
10282;DHT22;5186;59.472;18.048;2023-02-12T12:40:41;3.70;99.90
10282;DHT22;5186;59.472;18.048;2023-02-12T12:45:55;3.80;99.90
10282;DHT22;5186;59.472;18.048;2023-02-12T12:48:47;3.80;99.90
10282;DHT22;5186;59.472;18.048;2023-02-12T12:56:46;3.90;99.90
10282;DHT22;5186;59.472;18.048;2023-02-12T13:04:59;3.90;99.90
10282;DHT22;5186;59.472;18.048;2023-02-12T13:07:42;4.00;99.90
10282;DHT22;5186;59.472;18.048;2023-02-12T13:10:39;4.00;99.90
10282;DHT22;5186;59.472;18.048;2023-02-12T13:13:22;4.00;99.90
10282;DHT22;5186;59.472;18.048;2023-02-12T13:18:48;4.00;99.90
10282;DHT22;5186;59.472;18.048;2023-02-12T13:21:50;4.00;99.90
10282;DHT22;5186;59.472;18.048;2023-02-12T13:27:34;4.00;99.90
10282;DHT22;5186;59.472;18.048;2023-02-12T13:32:35;4.00;99.90
10282;DHT22;5186;59.472;18.048;2023-02-12T13:35:04;4.10;99.90
10282;DHT22;5186;59.472;18.048;2023-02-12T13:37:44;4.00;99.90
10282;DHT22;5186;59.472;18.048;2023-02-12T13:40:18;4.00;99.90
10282;DHT22;5186;59.472;18.048;2023-02-12T13:43:06;4.10;99.90
10282;DHT22;5186;59.472;18.048;2023-02-12T13:56:42;4.00;99.90
10282;DHT22;5186;59.472;18.048;2023-02-12T14:07:07;3.90;99.90
10282;DHT22;5186;59.472;18.048;2023-02-12T14:09:38;3.80;99.90
10282;DHT22;5186;59.472;18.048;2023-02-12T14:20:26;4.00;99.90
10282;DHT22;5186;59.472;18.048;2023-02-12T14:27:50;3.80;99.90
10282;DHT22;5186;59.472;18.048;2023-02-12T14:37:53;3.80;99.90
10282;DHT22;5186;59.472;18.048;2023-02-12T14:45:49;3.80;99.90
10282;DHT22;5186;59.472;18.048;2023-02-12T14:48:37;3.70;99.90
10282;DHT22;5186;59.472;18.048;2023-02-12T14:51:05;3.70;99.90
10282;DHT22;5186;59.472;18.048;2023-02-12T14:53:34;3.70;99.90
10282;DHT22;5186;59.472;18.048;2023-02-12T14:56:01;3.70;99.90
10282;DHT22;5186;59.472;18.048;2023-02-12T14:58:27;3.80;99.90
10282;DHT22;5186;59.472;18.048;2023-02-12T15:00:56;3.80;99.90
10282;DHT22;5186;59.472;18.048;2023-02-12T15:03:40;3.70;99.90
10282;DHT22;5186;59.472;18.048;2023-02-12T15:09:01;3.70;99.90
10282;DHT22;5186;59.472;18.048;2023-02-12T15:14:00;3.70;99.90
10282;DHT22;5186;59.472;18.048;2023-02-12T15:21:52;3.70;99.90
10282;DHT22;5186;59.472;18.048;2023-02-12T15:24:23;3.60;99.90
10282;DHT22;5186;59.472;18.048;2023-02-12T15:26:51;3.50;99.90
10282;DHT22;5186;59.472;18.048;2023-02-12T15:29:27;3.60;99.90
10282;DHT22;5186;59.472;18.048;2023-02-12T15:32:03;3.60;99.90
10282;DHT22;5186;59.472;18.048;2023-02-12T15:34:32;3.50;99.90
10282;DHT22;5186;59.472;18.048;2023-02-12T15:37:01;3.50;99.90
10282;DHT22;5186;59.472;18.048;2023-02-12T15:39:41;3.50;99.90
10282;DHT22;5186;59.472;18.048;2023-02-12T15:42:31;3.50;99.90
10282;DHT22;5186;59.472;18.048;2023-02-12T15:45:15;3.50;99.90
10282;DHT22;5186;59.472;18.048;2023-02-12T15:47:43;3.60;99.90
10282;DHT22;5186;59.472;18.048;2023-02-12T15:50:16;3.50;99.90
10282;DHT22;5186;59.472;18.048;2023-02-12T15:52:44;3.50;99.90
10282;DHT22;5186;59.472;18.048;2023-02-12T15:55:16;3.40;99.90
10282;DHT22;5186;59.472;18.048;2023-02-12T15:57:47;3.30;99.90
10282;DHT22;5186;59.472;18.048;2023-02-12T16:00:38;3.30;99.90
10282;DHT22;5186;59.472;18.048;2023-02-12T16:03:16;3.20;99.90
10282;DHT22;5186;59.472;18.048;2023-02-12T16:05:43;3.20;99.90
10282;DHT22;5186;59.472;18.048;2023-02-12T16:08:14;3.20;99.90
10282;DHT22;5186;59.472;18.048;2023-02-12T16:10:45;3.10;99.90
10282;DHT22;5186;59.472;18.048;2023-02-12T16:13:31;3.10;99.90
10282;DHT22;5186;59.472;18.048;2023-02-12T16:16:16;3.10;99.90
10282;DHT22;5186;59.472;18.048;2023-02-12T16:18:42;3.10;99.90
10282;DHT22;5186;59.472;18.048;2023-02-12T16:21:15;3.20;99.90
10282;DHT22;5186;59.472;18.048;2023-02-12T16:23:47;3.10;99.90
10282;DHT22;5186;59.472;18.048;2023-02-12T16:26:22;3.10;99.90
10282;DHT22;5186;59.472;18.048;2023-02-12T16:28:51;3.10;99.90
10282;DHT22;5186;59.472;18.048;2023-02-12T16:31:18;3.10;99.90
10282;DHT22;5186;59.472;18.048;2023-02-12T16:33:49;3.00;99.90
10282;DHT22;5186;59.472;18.048;2023-02-12T16:39:03;3.10;99.90
10282;DHT22;5186;59.472;18.048;2023-02-12T16:41:30;3.10;99.90
10282;DHT22;5186;59.472;18.048;2023-02-12T16:46:26;3.00;99.90
10282;DHT22;5186;59.472;18.048;2023-02-12T16:48:53;3.00;99.90
10282;DHT22;5186;59.472;18.048;2023-02-12T16:51:38;2.90;99.90
10282;DHT22;5186;59.472;18.048;2023-02-12T16:54:04;2.90;99.90
10282;DHT22;5186;59.472;18.048;2023-02-12T16:56:49;2.90;99.90
10282;DHT22;5186;59.472;18.048;2023-02-12T16:59:14;2.90;99.90
10282;DHT22;5186;59.472;18.048;2023-02-12T17:01:40;2.90;99.90
10282;DHT22;5186;59.472;18.048;2023-02-12T17:04:07;2.90;99.90
10282;DHT22;5186;59.472;18.048;2023-02-12T17:06:38;2.80;99.90
10282;DHT22;5186;59.472;18.048;2023-02-12T17:09:03;2.80;99.90
10282;DHT22;5186;59.472;18.048;2023-02-12T17:11:29;2.70;99.90
10282;DHT22;5186;59.472;18.048;2023-02-12T17:13:55;2.70;99.90
10282;DHT22;5186;59.472;18.048;2023-02-12T17:16:21;2.70;99.90
10282;DHT22;5186;59.472;18.048;2023-02-12T17:18:47;2.70;99.90
10282;DHT22;5186;59.472;18.048;2023-02-12T17:21:29;2.70;99.90
10282;DHT22;5186;59.472;18.048;2023-02-12T17:23:55;2.70;99.90
10282;DHT22;5186;59.472;18.048;2023-02-12T17:26:23;2.70;99.90
10282;DHT22;5186;59.472;18.048;2023-02-12T17:28:48;2.70;99.90
10282;DHT22;5186;59.472;18.048;2023-02-12T17:31:14;2.70;99.90
10282;DHT22;5186;59.472;18.048;2023-02-12T17:33:40;2.80;99.90
10282;DHT22;5186;59.472;18.048;2023-02-12T17:36:06;2.80;99.90
10282;DHT22;5186;59.472;18.048;2023-02-12T17:38:32;2.80;99.90
10282;DHT22;5186;59.472;18.048;2023-02-12T17:40:57;2.80;99.90
10282;DHT22;5186;59.472;18.048;2023-02-12T17:43:23;2.80;99.90
10282;DHT22;5186;59.472;18.048;2023-02-12T17:45:48;2.80;99.90
10282;DHT22;5186;59.472;18.048;2023-02-12T17:48:15;2.80;99.90
10282;DHT22;5186;59.472;18.048;2023-02-12T17:50:41;2.90;99.90
10282;DHT22;5186;59.472;18.048;2023-02-12T17:53:08;2.80;99.90
10282;DHT22;5186;59.472;18.048;2023-02-12T17:55:37;2.90;99.90
10282;DHT22;5186;59.472;18.048;2023-02-12T17:58:03;2.90;99.90
10282;DHT22;5186;59.472;18.048;2023-02-12T18:00:29;2.90;99.90
10282;DHT22;5186;59.472;18.048;2023-02-12T18:02:55;2.90;99.90
10282;DHT22;5186;59.472;18.048;2023-02-12T18:05:21;2.90;99.90
10282;DHT22;5186;59.472;18.048;2023-02-12T18:07:46;2.90;99.90
10282;DHT22;5186;59.472;18.048;2023-02-12T18:10:12;2.90;99.90
10282;DHT22;5186;59.472;18.048;2023-02-12T18:12:38;2.90;99.90
10282;DHT22;5186;59.472;18.048;2023-02-12T18:15:06;2.90;99.90
10282;DHT22;5186;59.472;18.048;2023-02-12T18:17:32;3.00;99.90
10282;DHT22;5186;59.472;18.048;2023-02-12T18:19:57;3.00;99.90
10282;DHT22;5186;59.472;18.048;2023-02-12T18:22:23;3.00;99.90
10282;DHT22;5186;59.472;18.048;2023-02-12T18:24:49;3.00;99.90
10282;DHT22;5186;59.472;18.048;2023-02-12T18:27:15;3.00;99.90
10282;DHT22;5186;59.472;18.048;2023-02-12T18:29:42;3.00;99.90
10282;DHT22;5186;59.472;18.048;2023-02-12T18:32:08;3.00;99.90
10282;DHT22;5186;59.472;18.048;2023-02-12T18:34:39;2.90;99.90
10282;DHT22;5186;59.472;18.048;2023-02-12T18:37:05;3.00;99.90
10282;DHT22;5186;59.472;18.048;2023-02-12T18:39:30;3.00;99.90
10282;DHT22;5186;59.472;18.048;2023-02-12T18:41:56;2.90;99.90
10282;DHT22;5186;59.472;18.048;2023-02-12T18:44:22;2.90;99.90